Time;durP1;ratioP1;P1;durP2;ratioP2;P2;SDS_P1;SDS_P2;PMS_P1;PMS_P2;Temp;Humidity;BMP_temperature;BMP_pressure;BME280_temperature;BME280_humidity;BME280_pressure;Samples;Min_cycle;Max_cycle;Signal;HPM_P1;HPM_P2
2023/09/05 00:00:13;;;;;;;2.67;2.57;;;;;;;;;;5112177;28;20216;-82
2023/09/05 00:02:42;;;;;;;1.80;1.70;;;;;;;;;;5112442;28;20210;-82
2023/09/05 00:05:11;;;;;;;8.63;5.70;;;;;;;;;;5112757;28;20208;-82
2023/09/05 00:07:41;;;;;;;0.50;0.50;;;;;;;;;;5113054;28;20207;-82
2023/09/05 00:10:11;;;;;;;0.67;0.67;;;;;;;;;;5112566;28;20193;-82
2023/09/05 00:12:40;;;;;;;1.67;1.57;;;;;;;;;;5112524;28;20196;-82
2023/09/05 00:15:10;;;;;;;3.87;2.33;;;;;;;;;;5112689;28;20270;-82
2023/09/05 00:17:40;;;;;;;4.80;3.67;;;;;;;;;;5112242;28;20207;-83
2023/09/05 00:20:09;;;;;;;1.07;1.07;;;;;;;;;;5112335;28;20203;-82
2023/09/05 00:22:38;;;;;;;2.03;1.73;;;;;;;;;;5112642;28;20192;-82
2023/09/05 00:25:07;;;;;;;2.20;2.10;;;;;;;;;;5112138;28;20291;-82
2023/09/05 00:27:35;;;;;;;1.43;1.33;;;;;;;;;;5112684;28;20261;-82
2023/09/05 00:30:04;;;;;;;1.73;1.73;;;;;;;;;;5112725;28;20200;-81
2023/09/05 00:32:33;;;;;;;1.07;1.07;;;;;;;;;;5112653;28;20196;-82
2023/09/05 00:35:02;;;;;;;1.87;1.73;;;;;;;;;;5112156;28;20196;-82
2023/09/05 00:37:31;;;;;;;1.67;1.57;;;;;;;;;;5114747;28;20248;-82
2023/09/05 00:40:00;;;;;;;4.00;2.43;;;;;;;;;;5116243;28;20203;-82
2023/09/05 00:42:29;;;;;;;1.17;1.13;;;;;;;;;;5115995;28;20220;-82
2023/09/05 00:44:58;;;;;;;5.03;3.70;;;;;;;;;;5115462;28;20195;-82
2023/09/05 00:47:30;;;;;;;1.17;1.07;;;;;;;;;;5116134;28;20256;-82
2023/09/05 00:50:03;;;;;;;4.13;3.23;;;;;;;;;;5116028;28;20554;-82
2023/09/05 00:52:33;;;;;;;1.97;1.80;;;;;;;;;;5115912;28;20241;-82
2023/09/05 00:55:02;;;;;;;4.67;3.73;;;;;;;;;;5115679;28;20206;-82
2023/09/05 00:57:32;;;;;;;6.50;4.13;;;;;;;;;;5116321;28;20212;-82
2023/09/05 01:00:01;;;;;;;2.83;1.93;;;;;;;;;;5115916;28;20219;-82
2023/09/05 01:02:29;;;;;;;2.03;1.93;;;;;;;;;;5115425;28;20225;-82
2023/09/05 01:04:58;;;;;;;2.10;1.90;;;;;;;;;;5116121;28;20200;-82
2023/09/05 01:07:31;;;;;;;1.43;1.33;;;;;;;;;;5115612;28;20193;-82
2023/09/05 01:10:07;;;;;;;4.87;3.73;;;;;;;;;;5115781;28;20222;-82
2023/09/05 01:12:35;;;;;;;5.10;4.10;;;;;;;;;;5115476;28;20207;-82
2023/09/05 01:15:04;;;;;;;4.83;3.57;;;;;;;;;;5115499;28;20223;-82
2023/09/05 01:17:33;;;;;;;2.53;2.33;;;;;;;;;;5115809;28;20267;-82
2023/09/05 01:20:03;;;;;;;3.83;3.13;;;;;;;;;;5115013;28;20208;-81
2023/09/05 01:22:37;;;;;;;5.77;5.20;;;;;;;;;;5114970;28;20215;-82
2023/09/05 01:25:10;;;;;;;5.60;3.57;;;;;;;;;;5115506;28;20203;-82
2023/09/05 01:27:39;;;;;;;3.73;3.40;;;;;;;;;;5115441;28;20203;-82
2023/09/05 01:30:09;;;;;;;3.50;3.20;;;;;;;;;;5114642;27;20390;-82
2023/09/05 01:32:39;;;;;;;6.50;5.10;;;;;;;;;;5114584;28;20359;-82
2023/09/05 01:35:08;;;;;;;4.37;3.70;;;;;;;;;;5115203;28;20200;-82
2023/09/05 01:37:35;;;;;;;5.73;4.57;;;;;;;;;;5114750;28;20231;-82
2023/09/05 01:40:04;;;;;;;2.60;2.27;;;;;;;;;;5114799;28;20191;-82
2023/09/05 01:42:34;;;;;;;3.67;3.10;;;;;;;;;;5114954;28;20227;-82
2023/09/05 01:45:03;;;;;;;6.37;4.93;;;;;;;;;;5115490;28;20208;-82
2023/09/05 01:47:31;;;;;;;6.13;4.70;;;;;;;;;;5113839;28;20211;-81
2023/09/05 01:50:00;;;;;;;4.43;3.57;;;;;;;;;;5114965;28;20200;-82
2023/09/05 01:52:28;;;;;;;5.37;4.87;;;;;;;;;;5115040;28;20222;-82
2023/09/05 01:54:57;;;;;;;8.43;4.90;;;;;;;;;;5114484;28;20188;-82
2023/09/05 01:57:26;;;;;;;4.27;3.13;;;;;;;;;;5114756;28;20222;-82
2023/09/05 01:59:56;;;;;;;3.73;3.43;;;;;;;;;;5114868;28;20211;-82
2023/09/05 02:02:25;;;;;;;6.57;4.80;;;;;;;;;;5114887;28;20223;-82
2023/09/05 02:04:53;;;;;;;3.47;3.13;;;;;;;;;;5115025;28;20233;-82
2023/09/05 02:07:22;;;;;;;2.83;2.57;;;;;;;;;;5115032;28;20204;-82
2023/09/05 02:09:50;;;;;;;4.60;2.63;;;;;;;;;;5115731;28;20201;-82
2023/09/05 02:12:19;;;;;;;9.73;6.17;;;;;;;;;;5115146;28;20196;-82
2023/09/05 02:14:47;;;;;;;5.47;4.13;;;;;;;;;;5114676;28;20204;-82
2023/09/05 02:17:20;;;;;;;2.27;1.83;;;;;;;;;;5114875;28;20199;-82
2023/09/05 02:19:49;;;;;;;2.87;2.27;;;;;;;;;;5115237;28;20197;-82
2023/09/05 02:22:17;;;;;;;1.53;1.43;;;;;;;;;;5115014;28;20274;-82
2023/09/05 02:24:45;;;;;;;1.20;1.20;;;;;;;;;;5114342;28;20208;-82
2023/09/05 02:27:14;;;;;;;1.70;1.60;;;;;;;;;;5115132;28;20197;-82
2023/09/05 02:29:42;;;;;;;1.70;1.60;;;;;;;;;;5115086;28;20205;-82
2023/09/05 02:32:11;;;;;;;0.40;0.40;;;;;;;;;;5114343;28;20188;-83
2023/09/05 02:34:40;;;;;;;1.03;0.87;;;;;;;;;;5114902;28;20211;-83
2023/09/05 02:37:09;;;;;;;0.87;0.87;;;;;;;;;;5114878;28;20231;-82
2023/09/05 02:39:37;;;;;;;0.73;0.73;;;;;;;;;;5114478;28;20206;-82
2023/09/05 02:42:06;;;;;;;0.63;0.63;;;;;;;;;;5114432;28;20221;-82
2023/09/05 02:44:34;;;;;;;2.03;1.93;;;;;;;;;;5114557;28;20270;-82
2023/09/05 02:47:03;;;;;;;1.43;1.43;;;;;;;;;;5114469;28;20203;-82
2023/09/05 02:49:32;;;;;;;3.03;2.83;;;;;;;;;;5114043;28;20204;-82
2023/09/05 02:52:02;;;;;;;0.47;0.47;;;;;;;;;;5114260;28;20218;-82
2023/09/05 02:54:30;;;;;;;2.63;2.40;;;;;;;;;;5114550;28;20198;-82
2023/09/05 02:56:58;;;;;;;2.77;1.53;;;;;;;;;;5114184;28;20206;-82
2023/09/05 02:59:27;;;;;;;1.10;1.10;;;;;;;;;;5113335;28;20253;-82
2023/09/05 03:01:55;;;;;;;1.10;1.10;;;;;;;;;;5114249;28;20217;-82
2023/09/05 03:04:32;;;;;;;0.70;0.70;;;;;;;;;;5114778;28;20199;-82
2023/09/05 03:07:02;;;;;;;0.93;0.93;;;;;;;;;;5113937;28;20196;-82
2023/09/05 03:09:31;;;;;;;1.03;1.03;;;;;;;;;;5114353;28;20201;-82
2023/09/05 03:11:59;;;;;;;1.23;1.23;;;;;;;;;;5114050;28;20201;-82
2023/09/05 03:14:28;;;;;;;1.70;1.60;;;;;;;;;;5114118;28;20192;-82
2023/09/05 03:16:56;;;;;;;3.10;1.97;;;;;;;;;;5112811;28;20232;-82
2023/09/05 03:19:25;;;;;;;2.50;2.33;;;;;;;;;;5113031;28;20207;-82
2023/09/05 03:21:53;;;;;;;4.23;1.90;;;;;;;;;;5112961;28;20209;-82
2023/09/05 03:24:24;;;;;;;2.07;1.97;;;;;;;;;;5112649;28;20242;-82
2023/09/05 03:26:53;;;;;;;5.33;2.53;;;;;;;;;;5113563;28;20200;-82
2023/09/05 03:29:21;;;;;;;1.67;1.57;;;;;;;;;;5113104;28;20193;-82
2023/09/05 03:31:50;;;;;;;1.00;1.00;;;;;;;;;;5113743;28;20204;-82
2023/09/05 03:34:18;;;;;;;2.50;2.30;;;;;;;;;;5113118;28;20185;-82
2023/09/05 03:36:47;;;;;;;2.93;2.73;;;;;;;;;;5113221;28;20222;-82
2023/09/05 03:39:15;;;;;;;0.57;0.57;;;;;;;;;;5113709;28;20196;-83
2023/09/05 03:41:45;;;;;;;0.37;0.37;;;;;;;;;;5113727;28;20361;-82
2023/09/05 03:44:16;;;;;;;2.43;2.17;;;;;;;;;;5113186;28;20220;-82
2023/09/05 03:46:45;;;;;;;1.80;1.63;;;;;;;;;;5113468;28;20199;-82
2023/09/05 03:49:13;;;;;;;2.30;2.17;;;;;;;;;;5113534;28;20222;-82
2023/09/05 03:51:42;;;;;;;1.47;1.37;;;;;;;;;;5113506;28;20209;-82
2023/09/05 03:54:12;;;;;;;1.83;1.73;;;;;;;;;;5113551;28;20205;-82
2023/09/05 03:56:41;;;;;;;2.73;2.00;;;;;;;;;;5113258;28;20200;-82
2023/09/05 03:59:11;;;;;;;7.57;5.43;;;;;;;;;;5113357;28;20201;-82
2023/09/05 04:01:39;;;;;;;2.57;2.40;;;;;;;;;;5113038;28;20286;-82
2023/09/05 04:04:09;;;;;;;3.47;2.53;;;;;;;;;;5112300;28;20212;-82
2023/09/05 04:06:38;;;;;;;4.00;3.00;;;;;;;;;;5112564;28;20234;-82
2023/09/05 04:09:07;;;;;;;1.60;1.50;;;;;;;;;;5112584;28;20226;-82
2023/09/05 04:11:35;;;;;;;2.47;2.27;;;;;;;;;;5113024;28;20216;-82
2023/09/05 04:14:04;;;;;;;3.17;2.90;;;;;;;;;;5116834;28;20203;-82
2023/09/05 04:16:34;;;;;;;3.90;3.50;;;;;;;;;;5116653;28;20324;-82
2023/09/05 04:19:02;;;;;;;3.03;2.80;;;;;;;;;;5116478;28;20235;-82
2023/09/05 04:21:31;;;;;;;3.27;3.03;;;;;;;;;;5116757;28;20200;-82
2023/09/05 04:24:00;;;;;;;4.20;3.83;;;;;;;;;;5116867;28;20234;-82
2023/09/05 04:26:29;;;;;;;5.80;5.30;;;;;;;;;;5117265;28;20211;-83
2023/09/05 04:28:58;;;;;;;6.00;3.87;;;;;;;;;;5117021;28;20196;-82
2023/09/05 04:31:26;;;;;;;5.47;3.83;;;;;;;;;;5117190;28;20200;-82
2023/09/05 04:33:56;;;;;;;4.03;3.67;;;;;;;;;;5117307;28;20257;-82
2023/09/05 04:36:25;;;;;;;4.63;2.83;;;;;;;;;;5117176;28;20273;-82
2023/09/05 04:38:54;;;;;;;6.73;5.27;;;;;;;;;;5116844;28;20204;-82
2023/09/05 04:41:22;;;;;;;10.33;3.73;;;;;;;;;;5117077;28;20295;-82
2023/09/05 04:43:52;;;;;;;5.43;4.17;;;;;;;;;;5116827;28;20222;-82
2023/09/05 04:46:20;;;;;;;2.97;2.70;;;;;;;;;;5116720;28;20212;-82
2023/09/05 04:48:49;;;;;;;6.57;4.50;;;;;;;;;;5116766;28;20211;-82
2023/09/05 04:51:19;;;;;;;5.27;4.73;;;;;;;;;;5116744;28;20255;-82
2023/09/05 04:53:47;;;;;;;3.80;3.50;;;;;;;;;;5117162;28;20197;-82
2023/09/05 04:56:17;;;;;;;5.13;3.83;;;;;;;;;;5116428;28;20221;-82
2023/09/05 04:58:45;;;;;;;2.00;1.87;;;;;;;;;;5116774;28;20224;-82
2023/09/05 05:01:15;;;;;;;2.60;2.30;;;;;;;;;;5116312;28;20193;-82
2023/09/05 05:03:44;;;;;;;0.47;0.47;;;;;;;;;;5116312;28;20224;-82
2023/09/05 05:06:12;;;;;;;1.23;1.20;;;;;;;;;;5116374;27;20205;-81
2023/09/05 05:08:42;;;;;;;2.70;2.50;;;;;;;;;;5116840;28;20200;-82
2023/09/05 05:11:11;;;;;;;4.00;3.60;;;;;;;;;;5116714;28;20196;-82
2023/09/05 05:13:39;;;;;;;3.63;3.23;;;;;;;;;;5115367;28;20211;-82
2023/09/05 05:16:08;;;;;;;1.47;1.37;;;;;;;;;;5115346;28;20241;-82
2023/09/05 05:18:36;;;;;;;2.87;2.67;;;;;;;;;;5115836;28;20202;-82
2023/09/05 05:21:05;;;;;;;4.07;3.70;;;;;;;;;;5115331;28;20211;-82
2023/09/05 05:23:33;;;;;;;5.27;4.70;;;;;;;;;;5114360;28;20213;-81
2023/09/05 05:26:03;;;;;;;5.63;4.63;;;;;;;;;;5115569;28;20295;-82
2023/09/05 05:28:32;;;;;;;1.60;1.47;;;;;;;;;;5115568;28;20200;-82
2023/09/05 05:31:00;;;;;;;1.90;1.57;;;;;;;;;;5114848;28;20216;-82
2023/09/05 05:33:29;;;;;;;1.17;1.00;;;;;;;;;;5115109;28;20188;-82
2023/09/05 05:35:58;;;;;;;4.93;4.23;;;;;;;;;;5115258;28;20203;-82
2023/09/05 05:38:26;;;;;;;0.90;0.90;;;;;;;;;;5115174;27;20200;-81
2023/09/05 05:40:57;;;;;;;1.10;1.10;;;;;;;;;;5114803;27;20207;-82
2023/09/05 05:43:29;;;;;;;0.77;0.77;;;;;;;;;;5114695;28;20222;-82
2023/09/05 05:45:57;;;;;;;2.13;2.00;;;;;;;;;;5114860;28;20231;-82
2023/09/05 05:48:27;;;;;;;2.17;1.70;;;;;;;;;;5115111;28;20185;-82
2023/09/05 05:50:57;;;;;;;1.53;1.53;;;;;;;;;;5115260;28;20253;-82
2023/09/05 05:53:25;;;;;;;1.83;1.73;;;;;;;;;;5115313;27;20204;-81
2023/09/05 05:55:54;;;;;;;0.63;0.63;;;;;;;;;;5115394;28;20215;-82
2023/09/05 05:58:22;;;;;;;3.20;1.63;;;;;;;;;;5114758;28;20204;-82
2023/09/05 06:00:53;;;;;;;1.90;1.80;;;;;;;;;;5114872;28;20202;-82
2023/09/05 06:03:22;;;;;;;0.57;0.57;;;;;;;;;;5114956;28;20204;-81
2023/09/05 06:05:51;;;;;;;1.70;1.60;;;;;;;;;;5115044;28;20192;-82
2023/09/05 06:08:20;;;;;;;0.40;0.40;;;;;;;;;;5114856;28;20192;-82
2023/09/05 06:10:48;;;;;;;3.23;3.03;;;;;;;;;;5114831;28;20220;-82
2023/09/05 06:13:17;;;;;;;4.03;3.57;;;;;;;;;;5114245;28;20195;-81
2023/09/05 06:15:45;;;;;;;0.70;0.70;;;;;;;;;;5114904;28;20232;-81
2023/09/05 06:18:15;;;;;;;2.13;1.90;;;;;;;;;;5115038;28;20205;-81
2023/09/05 06:20:44;;;;;;;0.83;0.83;;;;;;;;;;5115221;28;20200;-81
2023/09/05 06:23:12;;;;;;;0.53;0.53;;;;;;;;;;5114381;28;20200;-81
2023/09/05 06:25:41;;;;;;;1.93;1.77;;;;;;;;;;5114552;28;20222;-80
2023/09/05 06:28:09;;;;;;;5.70;4.93;;;;;;;;;;5114765;28;20205;-80
2023/09/05 06:30:38;;;;;;;1.90;1.67;;;;;;;;;;5114419;28;20188;-80
2023/09/05 06:33:07;;;;;;;1.80;1.70;;;;;;;;;;5114602;28;20207;-81
2023/09/05 06:35:38;;;;;;;1.10;1.10;;;;;;;;;;5113537;28;20188;-80
2023/09/05 06:38:07;;;;;;;0.57;0.57;;;;;;;;;;5114751;28;20216;-80
2023/09/05 06:40:35;;;;;;;0.40;0.40;;;;;;;;;;5114620;28;20206;-80
2023/09/05 06:43:04;;;;;;;1.70;1.60;;;;;;;;;;5114224;28;20454;-81
2023/09/05 06:45:32;;;;;;;3.00;2.23;;;;;;;;;;5114338;28;20222;-80
2023/09/05 06:48:01;;;;;;;9.00;1.27;;;;;;;;;;5114335;28;20205;-80
2023/09/05 06:50:29;;;;;;;0.30;0.30;;;;;;;;;;5114779;28;20227;-81
2023/09/05 06:52:59;;;;;;;0.93;0.93;;;;;;;;;;5114049;28;20275;-81
2023/09/05 06:55:28;;;;;;;8.13;4.50;;;;;;;;;;5114130;28;20191;-81
2023/09/05 06:57:57;;;;;;;3.37;3.07;;;;;;;;;;5114101;28;20219;-81
2023/09/05 07:00:27;;;;;;;2.53;2.33;;;;;;;;;;5113749;28;20214;-81
2023/09/05 07:02:56;;;;;;;2.93;2.53;;;;;;;;;;5113948;28;20238;-81
2023/09/05 07:05:25;;;;;;;0.80;0.80;;;;;;;;;;5113516;28;20236;-81
2023/09/05 07:07:54;;;;;;;1.73;1.57;;;;;;;;;;5113816;28;20221;-81
2023/09/05 07:10:24;;;;;;;5.40;3.40;;;;;;;;;;5113235;28;20202;-81
2023/09/05 07:12:52;;;;;;;0.80;0.80;;;;;;;;;;5113433;28;20197;-81
2023/09/05 07:15:21;;;;;;;1.43;1.33;;;;;;;;;;5113393;28;20196;-81
2023/09/05 07:17:51;;;;;;;2.73;1.77;;;;;;;;;;5113711;28;20225;-81
2023/09/05 07:20:19;;;;;;;3.03;2.73;;;;;;;;;;5113047;28;20194;-82
2023/09/05 07:22:48;;;;;;;2.63;2.43;;;;;;;;;;5113905;28;20255;-82
2023/09/05 07:25:16;;;;;;;3.47;1.97;;;;;;;;;;5113505;28;20220;-81
2023/09/05 07:27:46;;;;;;;1.23;1.23;;;;;;;;;;5113111;28;20283;-81
2023/09/05 07:30:16;;;;;;;2.03;1.93;;;;;;;;;;5113666;28;20209;-81
2023/09/05 07:32:44;;;;;;;2.60;2.40;;;;;;;;;;5112760;28;20202;-81
2023/09/05 07:35:13;;;;;;;0.97;0.83;;;;;;;;;;5113170;28;20203;-81
2023/09/05 07:37:41;;;;;;;1.17;1.17;;;;;;;;;;5112354;28;20231;-81
2023/09/05 07:40:14;;;;;;;2.70;2.50;;;;;;;;;;5112922;28;20218;-81
2023/09/05 07:42:43;;;;;;;3.07;2.03;;;;;;;;;;5112619;28;20208;-81
2023/09/05 07:45:13;;;;;;;0.83;0.83;;;;;;;;;;5112410;28;20232;-81
2023/09/05 07:47:41;;;;;;;0.70;0.70;;;;;;;;;;5112037;28;20224;-81
2023/09/05 07:50:10;;;;;;;2.93;2.70;;;;;;;;;;5112701;28;20389;-81
2023/09/05 07:52:39;;;;;;;1.37;1.27;;;;;;;;;;5112605;28;20208;-81
2023/09/05 07:55:08;;;;;;;0.90;0.90;;;;;;;;;;5112369;28;20204;-81
2023/09/05 07:57:37;;;;;;;0.90;0.90;;;;;;;;;;5112526;28;20259;-82
2023/09/05 08:00:15;;;;;;;3.90;2.70;;;;;;;;;;5112848;28;20237;-80
2023/09/05 08:02:46;;;;;;;2.83;2.30;;;;;;;;;;5112173;28;20292;-81
2023/09/05 08:05:15;;;;;;;0.80;0.80;;;;;;;;;;5112233;28;20240;-82
2023/09/05 08:07:43;;;;;;;1.90;1.23;;;;;;;;;;5112373;28;20204;-82
2023/09/05 08:10:12;;;;;;;4.73;2.90;;;;;;;;;;5112441;28;20195;-82
2023/09/05 08:12:40;;;;;;;1.77;1.60;;;;;;;;;;5112341;28;20202;-82
2023/09/05 08:15:09;;;;;;;2.33;1.50;;;;;;;;;;5112386;28;20202;-82
2023/09/05 08:17:38;;;;;;;5.13;3.87;;;;;;;;;;5112542;28;20296;-82
2023/09/05 08:20:12;;;;;;;1.20;0.93;;;;;;;;;;5112852;28;20210;-82
2023/09/05 08:22:40;;;;;;;0.40;0.40;;;;;;;;;;5113076;28;20247;-82
2023/09/05 08:25:09;;;;;;;5.07;2.63;;;;;;;;;;5113679;28;20216;-81
2023/09/05 08:27:39;;;;;;;3.40;3.07;;;;;;;;;;5112501;28;20205;-82
2023/09/05 08:30:11;;;;;;;3.43;2.27;;;;;;;;;;5112298;28;20236;-82
2023/09/05 08:32:39;;;;;;;2.70;2.20;;;;;;;;;;5112129;28;20201;-82
2023/09/05 08:35:10;;;;;;;1.80;1.43;;;;;;;;;;5112782;28;20297;-81
2023/09/05 08:37:38;;;;;;;2.27;2.07;;;;;;;;;;5113035;28;20210;-82
2023/09/05 08:40:08;;;;;;;3.57;2.73;;;;;;;;;;5112009;28;20198;-82
2023/09/05 08:42:37;;;;;;;2.60;2.10;;;;;;;;;;5112309;28;20213;-81
2023/09/05 08:45:09;;;;;;;3.13;1.97;;;;;;;;;;5112278;28;20214;-81
2023/09/05 08:47:38;;;;;;;2.37;2.07;;;;;;;;;;5112346;28;20199;-81
2023/09/05 08:50:08;;;;;;;2.10;1.93;;;;;;;;;;5111743;28;20191;-81
2023/09/05 08:52:39;;;;;;;3.47;2.00;;;;;;;;;;5112300;28;20210;-81
2023/09/05 08:55:10;;;;;;;2.23;2.03;;;;;;;;;;5111757;28;20206;-81
2023/09/05 08:57:39;;;;;;;0.80;0.80;;;;;;;;;;5112281;28;20195;-81
2023/09/05 09:00:08;;;;;;;2.37;2.00;;;;;;;;;;5115979;28;20200;-82
2023/09/05 09:02:37;;;;;;;1.80;1.70;;;;;;;;;;5116216;28;20199;-83
2023/09/05 09:05:06;;;;;;;1.43;1.33;;;;;;;;;;5115698;28;20248;-83
2023/09/05 09:07:35;;;;;;;1.90;1.43;;;;;;;;;;5115778;28;20460;-83
2023/09/05 09:10:17;;;;;;;2.47;1.83;;;;;;;;;;5115685;28;20253;-83
2023/09/05 09:12:45;;;;;;;2.87;2.20;;;;;;;;;;5115646;28;20196;-83
2023/09/05 09:15:15;;;;;;;2.37;1.47;;;;;;;;;;5115368;28;20196;-82
2023/09/05 09:17:43;;;;;;;2.67;1.93;;;;;;;;;;5115371;28;20397;-83
2023/09/05 09:20:13;;;;;;;2.03;1.83;;;;;;;;;;5115586;28;20192;-83
2023/09/05 09:22:41;;;;;;;4.87;2.43;;;;;;;;;;5115778;28;20211;-83
2023/09/05 09:25:14;;;;;;;1.20;0.93;;;;;;;;;;5114719;28;20200;-83
2023/09/05 09:27:44;;;;;;;1.33;1.23;;;;;;;;;;5115502;28;20201;-83
2023/09/05 09:30:13;;;;;;;2.57;1.80;;;;;;;;;;5115512;28;20197;-84
2023/09/05 09:32:42;;;;;;;3.77;2.73;;;;;;;;;;5115185;28;20195;-84
2023/09/05 09:35:12;;;;;;;1.47;1.37;;;;;;;;;;5115461;28;20202;-84
2023/09/05 09:37:40;;;;;;;1.23;1.13;;;;;;;;;;5115436;27;20222;-83
2023/09/05 09:40:09;;;;;;;0.40;0.40;;;;;;;;;;5115613;28;20202;-83
2023/09/05 09:42:37;;;;;;;1.73;1.47;;;;;;;;;;5114239;28;20225;-83
2023/09/05 09:45:08;;;;;;;0.73;0.70;;;;;;;;;;5114392;28;20206;-83
2023/09/05 09:47:41;;;;;;;5.07;1.90;;;;;;;;;;5114888;28;20210;-83
2023/09/05 09:50:11;;;;;;;1.90;1.17;;;;;;;;;;5115162;28;20252;-84
2023/09/05 09:52:44;;;;;;;1.70;1.10;;;;;;;;;;5115064;28;20239;-83
2023/09/05 09:55:13;;;;;;;1.10;1.10;;;;;;;;;;5115430;28;20205;-83
2023/09/05 09:57:45;;;;;;;22.37;20.37;;;;;;;;;;5115138;27;20193;-83
2023/09/05 10:00:18;;;;;;;1.07;1.03;;;;;;;;;;5114916;28;20249;-83
2023/09/05 10:02:49;;;;;;;3.13;2.23;;;;;;;;;;5114881;28;20234;-83
2023/09/05 10:05:19;;;;;;;1.77;1.67;;;;;;;;;;5114836;28;20222;-84
2023/09/05 10:07:49;;;;;;;0.30;0.30;;;;;;;;;;5115045;28;20206;-84
2023/09/05 10:10:17;;;;;;;0.43;0.43;;;;;;;;;;5114471;28;20206;-84
2023/09/05 10:12:47;;;;;;;1.27;0.97;;;;;;;;;;5115118;28;20192;-83
2023/09/05 10:15:18;;;;;;;0.97;0.63;;;;;;;;;;5114704;28;20240;-83
2023/09/05 10:17:46;;;;;;;0.33;0.33;;;;;;;;;;5114518;28;20207;-82
2023/09/05 10:20:19;;;;;;;0.93;0.93;;;;;;;;;;5114894;28;20210;-83
2023/09/05 10:22:53;;;;;;;1.23;1.17;;;;;;;;;;5114720;28;20204;-83
2023/09/05 10:25:23;;;;;;;2.43;1.13;;;;;;;;;;5114371;28;20199;-83
2023/09/05 10:27:51;;;;;;;1.00;0.40;;;;;;;;;;5114156;28;20226;-82
2023/09/05 10:30:23;;;;;;;4.83;2.17;;;;;;;;;;5114496;27;20208;-82
2023/09/05 10:32:53;;;;;;;0.70;0.70;;;;;;;;;;5115008;28;20214;-84
2023/09/05 10:35:22;;;;;;;2.10;1.60;;;;;;;;;;5114256;28;20196;-83
2023/09/05 10:37:52;;;;;;;1.50;1.40;;;;;;;;;;5114414;28;20225;-82
2023/09/05 10:40:32;;;;;;;0.57;0.57;;;;;;;;;;5114498;28;20200;-82
2023/09/05 10:43:02;;;;;;;1.77;1.07;;;;;;;;;;5114574;28;20204;-83
2023/09/05 10:45:33;;;;;;;0.50;0.50;;;;;;;;;;5113664;28;20204;-82
2023/09/05 10:48:04;;;;;;;2.10;1.13;;;;;;;;;;5114383;28;20224;-83
2023/09/05 10:50:33;;;;;;;0.70;0.70;;;;;;;;;;5114503;28;20227;-83
2023/09/05 10:53:20;;;;;;;0.93;0.60;;;;;;;;;;5114464;28;20256;-83
2023/09/05 10:55:50;;;;;;;4.40;2.37;;;;;;;;;;5113476;28;20274;-83
2023/09/05 10:58:37;;;;;;;4.00;2.00;;;;;;;;;;5114020;28;20228;-82
2023/09/05 11:01:21;;;;;;;3.53;2.60;;;;;;;;;;5114075;27;20296;-82
2023/09/05 11:03:51;;;;;;;2.27;1.57;;;;;;;;;;5112917;28;20258;-82
2023/09/05 11:06:21;;;;;;;0.57;0.57;;;;;;;;;;5113860;28;20259;-83
2023/09/05 11:08:57;;;;;;;2.60;2.27;;;;;;;;;;5114152;28;20249;-83
2023/09/05 11:11:27;;;;;;;1.43;1.33;;;;;;;;;;5113538;28;20213;-83
2023/09/05 11:13:57;;;;;;;0.60;0.60;;;;;;;;;;5113923;28;20205;-83
2023/09/05 11:16:27;;;;;;;4.97;2.30;;;;;;;;;;5113703;28;20227;-83
2023/09/05 11:18:57;;;;;;;1.50;1.40;;;;;;;;;;5114354;28;20208;-83
2023/09/05 11:21:26;;;;;;;1.70;1.23;;;;;;;;;;5113069;28;20296;-83
2023/09/05 11:23:55;;;;;;;2.13;2.00;;;;;;;;;;5113561;28;20258;-82
2023/09/05 11:26:24;;;;;;;1.80;1.50;;;;;;;;;;5113801;28;20231;-83
2023/09/05 11:28:52;;;;;;;1.27;1.17;;;;;;;;;;5114249;27;20200;-83
2023/09/05 11:31:21;;;;;;;1.10;1.00;;;;;;;;;;5113152;28;20200;-83
2023/09/05 11:33:50;;;;;;;5.67;1.40;;;;;;;;;;5113855;28;20205;-82
2023/09/05 11:36:20;;;;;;;5.20;2.00;;;;;;;;;;5113563;28;20232;-83
2023/09/05 11:38:49;;;;;;;1.37;1.27;;;;;;;;;;5113501;28;20198;-82
2023/09/05 11:41:19;;;;;;;1.70;1.23;;;;;;;;;;5113301;28;20246;-82
2023/09/05 11:43:48;;;;;;;1.00;0.73;;;;;;;;;;5113820;28;20202;-83
2023/09/05 11:46:18;;;;;;;5.67;5.17;;;;;;;;;;5113165;28;20197;-82
2023/09/05 11:48:48;;;;;;;2.93;2.70;;;;;;;;;;5113378;28;20300;-82
2023/09/05 11:51:17;;;;;;;2.70;1.90;;;;;;;;;;5113475;28;20205;-83
2023/09/05 11:53:47;;;;;;;1.30;1.20;;;;;;;;;;5113316;28;20205;-83
2023/09/05 11:56:16;;;;;;;0.70;0.70;;;;;;;;;;5113607;28;20199;-82
2023/09/05 11:58:45;;;;;;;2.83;1.63;;;;;;;;;;5113644;28;20194;-83
2023/09/05 12:01:13;;;;;;;2.40;1.80;;;;;;;;;;5113991;28;20202;-83
2023/09/05 12:03:42;;;;;;;3.37;2.40;;;;;;;;;;5113258;28;20209;-83
2023/09/05 12:06:11;;;;;;;0.73;0.73;;;;;;;;;;5113370;28;20204;-83
2023/09/05 12:08:41;;;;;;;1.70;1.60;;;;;;;;;;5113375;28;20225;-83
2023/09/05 12:11:11;;;;;;;3.17;1.20;;;;;;;;;;5113341;28;20225;-83
2023/09/05 12:13:43;;;;;;;2.00;1.30;;;;;;;;;;5112875;28;20219;-83
2023/09/05 12:16:13;;;;;;;1.80;1.53;;;;;;;;;;5112867;28;20252;-83
2023/09/05 12:18:41;;;;;;;1.57;1.37;;;;;;;;;;5113621;28;20241;-84
2023/09/05 12:21:14;;;;;;;3.73;1.40;;;;;;;;;;5113279;28;20210;-83
2023/09/05 12:23:42;;;;;;;2.00;1.33;;;;;;;;;;5113016;28;20204;-83
2023/09/05 12:26:12;;;;;;;2.13;1.77;;;;;;;;;;5113587;28;20226;-83
2023/09/05 12:28:41;;;;;;;2.20;1.47;;;;;;;;;;5112884;28;20229;-83
2023/09/05 12:31:11;;;;;;;0.60;0.60;;;;;;;;;;5112982;28;20210;-83
2023/09/05 12:33:39;;;;;;;0.80;0.80;;;;;;;;;;5114930;28;20265;-83
2023/09/05 12:36:08;;;;;;;2.80;0.97;;;;;;;;;;5116900;28;20237;-83
2023/09/05 12:38:37;;;;;;;2.87;1.80;;;;;;;;;;5116477;28;20196;-82
2023/09/05 12:41:05;;;;;;;0.97;0.97;;;;;;;;;;5116663;28;20204;-82
2023/09/05 12:43:36;;;;;;;1.43;1.30;;;;;;;;;;5116466;28;20203;-82
2023/09/05 12:46:04;;;;;;;0.60;0.50;;;;;;;;;;5117600;28;20210;-80
2023/09/05 12:48:33;;;;;;;1.70;1.60;;;;;;;;;;5116820;28;20242;-80
2023/09/05 12:51:04;;;;;;;2.10;1.03;;;;;;;;;;5116570;28;20199;-80
2023/09/05 12:53:33;;;;;;;1.50;1.40;;;;;;;;;;5116798;28;20206;-80
2023/09/05 12:56:08;;;;;;;1.63;1.53;;;;;;;;;;5116980;28;20213;-82
2023/09/05 12:58:38;;;;;;;1.07;0.90;;;;;;;;;;5116057;28;20199;-82
2023/09/05 13:01:06;;;;;;;0.57;0.57;;;;;;;;;;5119162;28;20206;-82
2023/09/05 13:03:35;;;;;;;0.93;0.93;;;;;;;;;;5116507;28;20202;-82
2023/09/05 13:06:04;;;;;;;1.40;1.30;;;;;;;;;;5116755;28;20199;-82
2023/09/05 13:08:33;;;;;;;2.70;1.70;;;;;;;;;;5116288;28;20211;-80
2023/09/05 13:11:01;;;;;;;0.50;0.50;;;;;;;;;;5116446;28;20206;-82
2023/09/05 13:13:30;;;;;;;0.57;0.57;;;;;;;;;;5116736;28;20193;-82
2023/09/05 13:16:00;;;;;;;0.53;0.53;;;;;;;;;;5116344;28;20243;-82
2023/09/05 13:18:28;;;;;;;1.70;1.50;;;;;;;;;;5116621;28;20196;-82
2023/09/05 13:20:57;;;;;;;0.97;0.93;;;;;;;;;;5116457;28;20204;-82
2023/09/05 13:23:25;;;;;;;2.23;1.37;;;;;;;;;;5116494;28;20215;-82
2023/09/05 13:25:54;;;;;;;2.67;1.53;;;;;;;;;;5116200;28;20260;-82
2023/09/05 13:28:23;;;;;;;1.10;0.80;;;;;;;;;;5115764;28;20312;-82
2023/09/05 13:30:53;;;;;;;1.23;1.13;;;;;;;;;;5116187;28;20204;-82
2023/09/05 13:33:23;;;;;;;0.97;0.90;;;;;;;;;;5116065;28;20206;-82
2023/09/05 13:35:51;;;;;;;2.13;0.90;;;;;;;;;;5115621;28;20203;-82
2023/09/05 13:38:20;;;;;;;3.60;1.57;;;;;;;;;;5115626;28;20207;-82
2023/09/05 13:40:49;;;;;;;1.80;0.77;;;;;;;;;;5115617;28;20234;-82
2023/09/05 13:43:17;;;;;;;1.07;1.00;;;;;;;;;;5115532;28;20203;-82
2023/09/05 13:45:46;;;;;;;4.50;3.07;;;;;;;;;;5115343;28;20195;-82
2023/09/05 13:48:14;;;;;;;1.17;1.17;;;;;;;;;;5115709;28;20213;-82
2023/09/05 13:50:45;;;;;;;4.03;3.00;;;;;;;;;;5115362;28;20243;-82
2023/09/05 13:53:16;;;;;;;1.60;1.43;;;;;;;;;;5114939;28;20256;-82
2023/09/05 13:55:44;;;;;;;1.70;1.60;;;;;;;;;;5115246;28;20204;-82
2023/09/05 13:58:13;;;;;;;2.40;1.30;;;;;;;;;;5115343;28;20203;-82
2023/09/05 14:00:41;;;;;;;2.90;2.30;;;;;;;;;;5115269;28;20203;-82
2023/09/05 14:03:10;;;;;;;1.53;1.43;;;;;;;;;;5114986;28;20235;-82
2023/09/05 14:05:38;;;;;;;0.87;0.87;;;;;;;;;;5115469;28;20200;-82
2023/09/05 14:08:09;;;;;;;1.43;1.10;;;;;;;;;;5115531;28;20216;-82
2023/09/05 14:10:37;;;;;;;1.43;1.33;;;;;;;;;;5114951;28;20215;-82
2023/09/05 14:13:06;;;;;;;2.13;1.30;;;;;;;;;;5115000;27;20220;-81
2023/09/05 14:15:34;;;;;;;1.00;0.90;;;;;;;;;;5115099;28;20196;-83
2023/09/05 14:18:03;;;;;;;2.40;1.37;;;;;;;;;;5114816;28;20232;-82
2023/09/05 14:20:32;;;;;;;2.33;1.90;;;;;;;;;;5115194;27;20196;-82
2023/09/05 14:23:01;;;;;;;0.80;0.80;;;;;;;;;;5115259;28;20249;-82
2023/09/05 14:25:30;;;;;;;1.93;1.50;;;;;;;;;;5114965;28;20196;-83
2023/09/05 14:27:59;;;;;;;11.50;2.70;;;;;;;;;;5114377;27;20199;-82
2023/09/05 14:30:27;;;;;;;2.67;2.03;;;;;;;;;;5115114;28;20204;-82
2023/09/05 14:32:56;;;;;;;0.50;0.50;;;;;;;;;;5114942;28;20203;-82
2023/09/05 14:35:25;;;;;;;0.60;0.60;;;;;;;;;;5115244;28;20196;-82
2023/09/05 14:37:54;;;;;;;1.77;1.67;;;;;;;;;;5114903;28;20231;-82
2023/09/05 14:40:23;;;;;;;7.87;2.30;;;;;;;;;;5114095;28;20204;-82
2023/09/05 14:42:54;;;;;;;8.63;1.47;;;;;;;;;;5114475;28;20249;-82
2023/09/05 14:45:23;;;;;;;1.97;1.57;;;;;;;;;;5114807;28;20200;-82
2023/09/05 14:47:51;;;;;;;0.80;0.80;;;;;;;;;;5114333;28;20204;-82
2023/09/05 14:50:21;;;;;;;2.90;1.77;;;;;;;;;;5114321;28;20249;-80
2023/09/05 14:52:54;;;;;;;0.60;0.60;;;;;;;;;;5114567;28;20207;-81
2023/09/05 14:55:23;;;;;;;1.07;0.60;;;;;;;;;;5113546;28;20204;-81